MDT,Max TemperatureF,Mean TemperatureF,Min TemperatureF,Max Dew PointF,MeanDew PointF,Min DewpointF,Max Humidity, Mean Humidity, Min Humidity, Max Sea Level PressureIn, Mean Sea Level PressureIn, Min Sea Level PressureIn, Max VisibilityMiles, Mean VisibilityMiles, Min VisibilityMiles, Max Wind SpeedMPH, Mean Wind SpeedMPH, Max Gust SpeedMPH,PrecipitationIn, CloudCover, Events, WindDirDegrees
2013-4-1,48,31,14,26,18,11,88,58,28,30.15,30.08,30.02,,,,7,1,8,0.00,,,103
2013-4-2,49,32,14,22,17,8,92,56,19,30.19,30.13,30.07,,,,8,1,12,0.00,,,300
2013-4-3,49,35,21,30,23,19,92,63,34,30.22,30.16,30.10,,,,12,2,18,0.00,,,340
2013-4-4,52,38,23,33,27,21,96,68,39,30.17,30.07,29.88,,,,15,3,23,0.00,,,231
2013-4-5,40,35,30,33,30,26,100,80,59,29.99,29.89,29.81,,,,18,3,36,0.28,,,267
2013-4-6,39,32,24,31,28,22,92,81,70,30.01,29.95,29.90,,,,13,2,20,0.16,,,280
2013-4-7,37,32,27,29,27,24,92,84,75,29.89,29.75,29.65,,,,12,2,24,0.50,,,267
2013-4-8,29,21,13,25,17,5,92,78,63,30.00,29.77,29.63,,,,9,4,18,0.19,,,70
2013-4-9,32,20,8,15,9,2,83,65,47,30.30,30.16,30.01,,,,12,4,21,0.00,,,80
2013-4-10,40,17,-6,25,10,-10,92,70,48,30.32,30.20,29.97,,,,12,2,18,0.01,,,150
2013-4-11,42,34,25,26,19,11,92,61,30,29.94,29.89,29.85,,,,15,5,20,0.03,,,289
2013-4-12,40,28,15,20,13,1,80,50,20,30.06,29.96,29.80,,,,12,3,22,0.00,,,310
2013-4-13,34,22,9,29,22,10,100,77,53,29.78,29.56,29.39,,,,16,4,30,0.63,,,296
2013-4-14,28,14,-1,16,9,-5,91,75,59,29.95,29.84,29.72,,,,18,3,29,0.13,,,279
2013-4-15,29,14,-2,16,7,-6,91,71,50,30.03,29.91,29.85,,,,9,2,15,0.01,,,120
2013-4-16,23,14,4,8,3,-1,83,65,47,30.23,30.05,29.96,,,,12,4,20,0.00,,,80
2013-4-17,25,11,-3,3,0,-7,87,62,36,30.40,30.27,30.19,,,,14,4,23,0.00,,,327
2013-4-18,35,13,-10,14,2,-14,87,61,35,30.45,30.39,30.29,,,,14,3,21,0.00,,,149
2013-4-19,35,29,23,27,21,12,92,74,55,30.24,30.07,29.94,,,,12,3,23,0.07,,,-1
2013-4-20,41,31,21,27,23,18,100,70,40,30.05,29.99,29.94,,,,20,5,33,0.04,,,279
2013-4-21,40,30,20,28,22,17,92,66,40,30.12,30.02,29.93,,,,13,4,26,0.20,,,265
2013-4-22,26,16,6,22,10,1,88,69,49,30.40,30.18,29.96,,,,12,3,21,0.03,,,33
2013-4-23,32,11,-11,14,1,-16,87,62,36,30.50,30.39,30.30,,,,15,2,24,0.00,,,105
2013-4-24,41,22,3,15,9,-1,91,58,25,30.37,30.30,30.18,,,,14,3,22,0.00,,,195
2013-4-25,47,32,16,19,11,6,75,48,20,30.16,30.07,29.99,,,,18,5,25,0.00,,,299
2013-4-26,52,35,18,22,16,7,81,49,16,30.35,30.26,30.13,,,,15,3,21,0.00,,,294
2013-4-27,55,38,20,25,20,14,88,55,22,30.34,30.21,30.05,,,,14,4,26,0.00,,,272
2013-4-28,48,38,28,31,27,21,92,67,42,30.07,30.00,29.94,,,,16,3,23,0.00,,,291
2013-4-29,41,34,26,31,23,18,92,70,47,29.94,29.77,29.61,,,,17,6,35,0.02,,,272
2013-4-30,34,25,15,16,8,0,80,53,25,30.12,29.91,29.77,,,,15,4,25,0.01,,,296